Time;durP1;ratioP1;P1;durP2;ratioP2;P2;SDS_P1;SDS_P2;PMS_P1;PMS_P2;Temp;Humidity;BMP_temperature;BMP_pressure;BME280_temperature;BME280_humidity;BME280_pressure;Samples;Min_cycle;Max_cycle;Signal;HPM_P1;HPM_P2
2022/02/02 00:00:23;;;;;;;17.23;11.07;;;;;;;;;;5071692;28;20116;-84
2022/02/02 00:02:58;;;;;;;14.95;10.35;;;;;;;;;;5071559;28;20051;-78
2022/02/02 00:05:49;;;;;;;14.73;10.40;;;;;;;;;;5071879;28;20032;-81
2022/02/02 00:08:50;;;;;;;15.15;10.02;;;;;;;;;;5053661;28;20032;-79
2022/02/02 00:18:52;;;;;;;;;;;;;;;;;;5075597;28;20040;-80
2022/02/02 00:21:41;;;;;;;12.45;8.57;;;;;;;;;;5075220;28;20866;-80
2022/02/02 00:27:00;;;;;;;15.80;9.85;;;;;;;;;;5066992;28;20032;-79
2022/02/02 00:29:33;;;;;;;16.65;11.52;;;;;;;;;;5074979;28;20129;-78
2022/02/02 00:32:37;;;;;;;19.08;11.07;;;;;;;;;;5074529;28;20035;-79
2022/02/02 00:34:48;;;;;;;17.50;10.88;;;;;;;;;;5074175;28;20114;-82
2022/02/02 00:37:16;;;;;;;17.92;11.80;;;;;;;;;;5074716;28;20037;-81
2022/02/02 00:39:42;;;;;;;18.10;10.85;;;;;;;;;;5074894;28;20020;-80
2022/02/02 00:42:09;;;;;;;19.40;10.50;;;;;;;;;;5075115;28;20016;-81
2022/02/02 00:44:41;;;;;;;15.35;10.35;;;;;;;;;;5074887;28;20024;-81
2022/02/02 00:47:07;;;;;;;15.00;9.80;;;;;;;;;;5074974;28;20021;-82
2022/02/02 00:49:34;;;;;;;14.02;10.05;;;;;;;;;;5074835;28;20036;-78
2022/02/02 00:52:00;;;;;;;16.25;10.25;;;;;;;;;;5074724;28;20472;-79
2022/02/02 00:54:27;;;;;;;11.32;8.20;;;;;;;;;;5074792;28;20040;-82
2022/02/02 00:56:53;;;;;;;16.40;10.18;;;;;;;;;;5074368;28;20058;-81
2022/02/02 00:59:22;;;;;;;16.20;10.27;;;;;;;;;;5074452;28;20028;-79
2022/02/02 01:01:48;;;;;;;18.10;12.05;;;;;;;;;;5074420;28;20020;-79
2022/02/02 01:04:14;;;;;;;18.58;11.48;;;;;;;;;;5056790;28;20475;-80
2022/02/02 01:09:35;;;;;;;13.63;9.93;;;;;;;;;;5074639;28;20124;-82
2022/02/02 01:20:17;;;;;;;16.33;8.70;;;;;;;;;;5063110;28;20492;-79
2022/02/02 01:28:13;;;;;;;14.25;10.55;;;;;;;;;;5079980;28;20078;-80
2022/02/02 01:30:39;;;;;;;15.20;10.48;;;;;;;;;;5094294;28;20028;-80
2022/02/02 01:33:06;;;;;;;17.17;11.48;;;;;;;;;;5094359;28;20107;-79
2022/02/02 01:35:32;;;;;;;15.43;10.02;;;;;;;;;;5094095;28;20035;-81
2022/02/02 01:37:58;;;;;;;14.63;11.00;;;;;;;;;;5094408;28;20028;-82
2022/02/02 01:40:39;;;;;;;17.17;11.35;;;;;;;;;;5093788;28;20036;-81
2022/02/02 01:43:10;;;;;;;16.23;10.77;;;;;;;;;;5093878;28;20379;-78
2022/02/02 01:45:41;;;;;;;15.23;10.52;;;;;;;;;;5093989;28;20028;-80
2022/02/02 01:50:53;;;;;;;16.98;11.88;;;;;;;;;;5106311;28;20051;-80
2022/02/02 01:53:29;;;;;;;16.83;11.23;;;;;;;;;;5095700;28;20043;-80
2022/02/02 01:55:56;;;;;;;18.02;11.75;;;;;;;;;;5113956;28;20028;-83
2022/02/02 02:00:51;;;;;;;16.55;10.98;;;;;;;;;;5113776;28;20027;-81
2022/02/02 02:03:17;;;;;;;14.18;9.30;;;;;;;;;;5113863;28;20027;-83
2022/02/02 02:05:44;;;;;;;15.13;10.52;;;;;;;;;;5113655;28;20028;-82
2022/02/02 02:08:10;;;;;;;15.50;11.13;;;;;;;;;;5113817;28;20381;-81
2022/02/02 02:10:36;;;;;;;15.75;10.18;;;;;;;;;;5113725;28;20027;-81
2022/02/02 02:15:47;;;;;;;;;;;;;;;;;;5113998;28;20038;-80
2022/02/02 02:18:13;;;;;;;14.98;9.85;;;;;;;;;;5095148;28;20273;-81
2022/02/02 02:20:41;;;;;;;15.68;10.95;;;;;;;;;;5106020;28;20098;-81
2022/02/02 02:23:09;;;;;;;16.55;10.77;;;;;;;;;;5106272;28;20024;-80
2022/02/02 02:25:39;;;;;;;16.70;11.30;;;;;;;;;;5101623;28;20026;-80
2022/02/02 02:58:13;;;;;;;12.60;8.75;;;;;;;;;;5108356;28;20051;-80
2022/02/02 03:01:17;;;;;;;12.70;7.63;;;;;;;;;;5113080;28;20019;-79
2022/02/02 03:55:19;;;;;;;12.30;7.18;;;;;;;;;;5116382;28;20036;-80
2022/02/02 04:06:06;;;;;;;14.90;8.60;;;;;;;;;;5116585;28;19949;-81
2022/02/02 04:08:36;;;;;;;15.73;9.95;;;;;;;;;;5097808;28;20095;-83
2022/02/02 04:11:10;;;;;;;14.85;10.10;;;;;;;;;;5116581;28;20032;-80
2022/02/02 05:07:34;;;;;;;15.18;10.02;;;;;;;;;;5095170;28;20028;-82
2022/02/02 05:16:04;;;;;;;12.93;8.88;;;;;;;;;;5094674;28;20108;-80
2022/02/02 05:51:23;;;;;;;15.85;10.95;;;;;;;;;;5059557;28;20083;-84
2022/02/02 05:53:50;;;;;;;18.92;10.95;;;;;;;;;;5082827;28;20039;-80
2022/02/02 05:56:16;;;;;;;16.23;8.77;;;;;;;;;;5088736;28;20052;-82
2022/02/02 05:58:44;;;;;;;16.73;10.25;;;;;;;;;;5073139;28;20074;-81
2022/02/02 06:01:11;;;;;;;15.60;10.05;;;;;;;;;;5072278;28;20040;-83
2022/02/02 06:03:47;;;;;;;21.42;12.65;;;;;;;;;;5073195;28;20032;-83
2022/02/02 06:06:13;;;;;;;19.33;11.40;;;;;;;;;;5073429;28;20471;-83
2022/02/02 06:08:43;;;;;;;18.13;12.50;;;;;;;;;;5071599;28;20138;-85
2022/02/02 06:11:14;;;;;;;22.58;13.40;;;;;;;;;;5073435;28;20546;-83
2022/02/02 06:13:47;;;;;;;16.98;10.57;;;;;;;;;;5072794;28;20021;-83
2022/02/02 06:16:14;;;;;;;19.20;12.25;;;;;;;;;;5073064;28;20032;-81
2022/02/02 06:18:41;;;;;;;21.67;13.40;;;;;;;;;;5072188;28;20052;-79
2022/02/02 06:21:08;;;;;;;23.90;14.02;;;;;;;;;;5073203;28;20506;-82
2022/02/02 06:23:37;;;;;;;18.60;11.88;;;;;;;;;;5071796;28;20021;-84
2022/02/02 06:26:29;;;;;;;19.90;12.80;;;;;;;;;;5063448;28;20054;-82
2022/02/02 06:28:57;;;;;;;17.70;10.73;;;;;;;;;;5085196;28;20036;-83
2022/02/02 06:31:26;;;;;;;20.60;12.52;;;;;;;;;;5092824;28;20097;-84
2022/02/02 06:33:59;;;;;;;21.25;12.77;;;;;;;;;;5087698;28;20031;-81
2022/02/02 06:36:27;;;;;;;17.40;10.65;;;;;;;;;;5070518;28;20068;-80
2022/02/02 06:38:54;;;;;;;17.35;10.88;;;;;;;;;;5070533;28;20395;-79
2022/02/02 06:41:20;;;;;;;17.67;12.15;;;;;;;;;;5070591;28;20046;-81
2022/02/02 06:43:46;;;;;;;18.90;12.30;;;;;;;;;;5071286;28;20056;-83
2022/02/02 06:46:13;;;;;;;17.25;10.75;;;;;;;;;;5072403;28;20419;-82
2022/02/02 06:48:39;;;;;;;20.05;12.50;;;;;;;;;;5070773;28;20109;-80
2022/02/02 06:51:17;;;;;;;22.40;12.00;;;;;;;;;;5071686;28;20053;-80
2022/02/02 06:54:04;;;;;;;21.15;14.05;;;;;;;;;;5071515;28;20024;-80
2022/02/02 06:59:11;;;;;;;21.02;13.00;;;;;;;;;;5072280;28;20033;-81
2022/02/02 07:01:53;;;;;;;21.20;12.98;;;;;;;;;;5071985;28;20039;-81
2022/02/02 07:05:03;;;;;;;20.60;13.32;;;;;;;;;;5072039;28;20104;-80
2022/02/02 07:31:58;;;;;;;19.35;11.43;;;;;;;;;;5055654;28;20041;-81
2022/02/02 07:34:53;;;;;;;20.52;11.88;;;;;;;;;;5050316;28;20033;-82
2022/02/02 07:37:30;;;;;;;15.60;10.10;;;;;;;;;;5066042;28;20025;-82
2022/02/02 07:39:58;;;;;;;20.67;12.05;;;;;;;;;;5085045;28;20017;-81
2022/02/02 07:42:26;;;;;;;18.05;11.13;;;;;;;;;;5087858;28;20031;-80
2022/02/02 07:44:54;;;;;;;18.65;11.88;;;;;;;;;;5079708;28;20024;-79
2022/02/02 07:47:21;;;;;;;19.10;9.65;;;;;;;;;;5091410;28;20032;-82
2022/02/02 07:49:52;;;;;;;18.38;12.25;;;;;;;;;;5091151;28;20052;-81
2022/02/02 07:52:20;;;;;;;18.92;10.02;;;;;;;;;;5097060;28;20036;-80
2022/02/02 07:54:48;;;;;;;14.93;10.52;;;;;;;;;;5102599;28;20122;-83
2022/02/02 07:57:19;;;;;;;23.67;11.75;;;;;;;;;;5093093;28;20048;-82
2022/02/02 08:02:13;;;;;;;23.55;11.00;;;;;;;;;;5115379;28;20030;-80
2022/02/02 08:04:40;;;;;;;16.05;9.88;;;;;;;;;;5115337;28;20135;-80
2022/02/02 08:07:13;;;;;;;15.88;9.98;;;;;;;;;;5115111;28;20063;-81
2022/02/02 08:09:45;;;;;;;14.63;9.15;;;;;;;;;;5100418;28;20042;-81
2022/02/02 08:14:59;;;;;;;23.98;9.13;;;;;;;;;;5100112;28;20328;-85
2022/02/02 08:17:28;;;;;;;16.58;9.85;;;;;;;;;;5103596;28;20036;-83
2022/02/02 08:19:54;;;;;;;18.42;11.50;;;;;;;;;;5080790;28;20020;-79
2022/02/02 08:22:21;;;;;;;18.88;10.27;;;;;;;;;;5099793;28;20031;-83
2022/02/02 08:24:47;;;;;;;17.35;9.85;;;;;;;;;;5081291;28;20125;-78
2022/02/02 08:27:13;;;;;;;14.32;10.15;;;;;;;;;;5094640;28;20081;-80
2022/02/02 08:29:39;;;;;;;17.80;9.85;;;;;;;;;;5076404;28;20060;-77
2022/02/02 08:32:05;;;;;;;19.45;10.80;;;;;;;;;;5094429;28;20462;-78
2022/02/02 08:34:32;;;;;;;22.10;12.90;;;;;;;;;;5095942;28;20028;-77
2022/02/02 08:36:58;;;;;;;20.88;13.13;;;;;;;;;;5112095;28;20390;-77
2022/02/02 08:39:47;;;;;;;15.77;9.60;;;;;;;;;;5109431;28;20039;-78
2022/02/02 08:42:15;;;;;;;19.63;12.00;;;;;;;;;;5101583;28;20131;-78
2022/02/02 08:47:13;;;;;;;19.40;12.02;;;;;;;;;;5094507;28;20031;-80
2022/02/02 08:49:47;;;;;;;20.83;10.65;;;;;;;;;;5098879;28;20043;-78
2022/02/02 08:52:14;;;;;;;19.30;11.10;;;;;;;;;;5114437;28;20032;-77
2022/02/02 08:54:48;;;;;;;16.15;9.25;;;;;;;;;;5114163;28;20702;-78
2022/02/02 08:59:58;;;;;;;11.70;7.80;;;;;;;;;;5101027;28;20028;-81
2022/02/02 09:02:28;;;;;;;24.08;13.68;;;;;;;;;;5093810;28;20110;-79
2022/02/02 09:07:39;;;;;;;11.57;7.57;;;;;;;;;;5096215;28;20116;-79
2022/02/02 09:10:13;;;;;;;18.70;9.57;;;;;;;;;;5109588;28;20055;-77
2022/02/02 09:23:32;;;;;;;17.33;10.35;;;;;;;;;;5110711;28;20067;-79
2022/02/02 09:34:10;;;;;;;17.27;10.85;;;;;;;;;;5113345;28;20084;-81
2022/02/02 09:36:40;;;;;;;13.57;9.05;;;;;;;;;;5095195;28;20023;-78
2022/02/02 09:39:27;;;;;;;18.38;10.55;;;;;;;;;;5113565;28;20064;-72
2022/02/02 09:42:02;;;;;;;21.65;12.18;;;;;;;;;;5093709;28;20386;-78
2022/02/02 09:44:35;;;;;;;15.02;10.70;;;;;;;;;;5074629;28;20462;-79
2022/02/02 09:47:29;;;;;;;19.58;12.25;;;;;;;;;;5092481;28;20039;-80
2022/02/02 09:52:52;;;;;;;15.45;9.73;;;;;;;;;;5092455;28;20157;-79
2022/02/02 09:55:46;;;;;;;19.85;12.82;;;;;;;;;;5092085;28;20085;-79
2022/02/02 10:06:02;;;;;;;19.83;13.25;;;;;;;;;;5080408;28;20031;-82
2022/02/02 10:14:15;;;;;;;18.98;12.75;;;;;;;;;;5085029;28;20383;-81
2022/02/02 10:16:42;;;;;;;20.92;14.27;;;;;;;;;;5092510;28;20479;-82
2022/02/02 10:19:12;;;;;;;19.27;13.73;;;;;;;;;;5098200;28;20115;-82
2022/02/02 10:21:39;;;;;;;19.38;11.00;;;;;;;;;;5074437;28;20036;-79
2022/02/02 10:24:05;;;;;;;22.98;14.57;;;;;;;;;;5092676;28;20099;-80
2022/02/02 10:26:31;;;;;;;20.08;13.80;;;;;;;;;;5092125;28;20394;-82
2022/02/02 10:29:06;;;;;;;21.73;13.93;;;;;;;;;;5095784;28;20091;-85
2022/02/02 10:31:51;;;;;;;23.83;14.75;;;;;;;;;;5092590;28;21140;-83
2022/02/02 10:34:17;;;;;;;;;;;;;;;;;;5092853;28;20024;-82
2022/02/02 10:36:44;;;;;;;21.23;13.63;;;;;;;;;;5074711;28;19912;-83
2022/02/02 10:39:13;;;;;;;25.45;15.60;;;;;;;;;;5092921;28;20053;-82
2022/02/02 10:41:59;;;;;;;21.85;14.32;;;;;;;;;;5092658;28;20072;-86
2022/02/02 10:44:46;;;;;;;19.75;11.57;;;;;;;;;;5094753;28;20031;-78
2022/02/02 10:52:43;;;;;;;15.55;10.43;;;;;;;;;;5078623;28;20048;-84
2022/02/02 11:01:08;;;;;;;23.10;12.85;;;;;;;;;;5077135;28;20502;-79
2022/02/02 11:09:05;;;;;;;15.90;10.95;;;;;;;;;;5092074;28;20043;-76
2022/02/02 11:11:31;;;;;;;12.45;9.13;;;;;;;;;;5073699;28;20039;-77
2022/02/02 11:14:07;;;;;;;12.60;7.97;;;;;;;;;;5091792;28;20424;-80
2022/02/02 11:16:35;;;;;;;15.07;8.95;;;;;;;;;;5090209;28;20518;-85
2022/02/02 11:19:02;;;;;;;16.60;9.68;;;;;;;;;;5091666;28;20024;-80
2022/02/02 11:21:33;;;;;;;19.83;11.40;;;;;;;;;;5091583;28;20478;-79
2022/02/02 11:24:00;;;;;;;18.33;9.05;;;;;;;;;;5091237;28;20106;-82
2022/02/02 11:26:45;;;;;;;23.65;12.38;;;;;;;;;;5090206;28;20550;-79
2022/02/02 11:29:31;;;;;;;19.58;12.32;;;;;;;;;;5080625;28;20047;-79
2022/02/02 11:32:16;;;;;;;18.35;8.57;;;;;;;;;;5076547;28;20084;-82
2022/02/02 11:34:42;;;;;;;19.80;11.88;;;;;;;;;;5078058;28;20028;-82
2022/02/02 11:37:09;;;;;;;18.73;9.23;;;;;;;;;;5079470;28;20126;-76
2022/02/02 11:40:02;;;;;;;15.80;9.95;;;;;;;;;;5076426;28;20097;-81
2022/02/02 11:42:53;;;;;;;18.13;10.85;;;;;;;;;;5069024;28;20033;-81
2022/02/02 11:45:40;;;;;;;18.20;10.65;;;;;;;;;;5072524;28;20048;-79
2022/02/02 11:48:14;;;;;;;16.35;10.73;;;;;;;;;;5058527;28;20036;-78
2022/02/02 11:50:59;;;;;;;19.67;12.70;;;;;;;;;;5082010;28;20055;-82
2022/02/02 11:53:43;;;;;;;15.85;9.52;;;;;;;;;;5087337;28;20778;-76
2022/02/02 11:56:09;;;;;;;17.85;10.02;;;;;;;;;;5091043;28;20399;-81
2022/02/02 11:58:36;;;;;;;16.88;10.35;;;;;;;;;;5091580;28;20063;-78
2022/02/02 12:01:17;;;;;;;21.08;9.32;;;;;;;;;;5091192;28;20028;-78
2022/02/02 12:57:23;;;;;;;11.88;7.30;;;;;;;;;;5093543;28;20559;-78
2022/02/02 13:02:17;;;;;;;11.45;6.93;;;;;;;;;;5073786;28;20025;-79
2022/02/02 13:04:47;;;;;;;11.75;7.28;;;;;;;;;;5074101;28;20044;-78
2022/02/02 13:07:17;;;;;;;12.02;7.43;;;;;;;;;;5082305;28;20107;-81
2022/02/02 13:09:47;;;;;;;12.98;7.20;;;;;;;;;;5075203;28;20085;-78
2022/02/02 13:12:37;;;;;;;13.63;8.18;;;;;;;;;;5056458;28;20029;-85
2022/02/02 13:17:45;;;;;;;11.45;6.20;;;;;;;;;;5053548;28;20041;-81
2022/02/02 13:20:14;;;;;;;15.57;8.60;;;;;;;;;;5053382;28;20094;-78
2022/02/02 13:22:47;;;;;;;13.20;7.82;;;;;;;;;;5068637;28;20043;-76
2022/02/02 13:25:30;;;;;;;11.43;6.97;;;;;;;;;;5083028;28;20558;-77
2022/02/02 13:27:59;;;;;;;10.70;6.75;;;;;;;;;;5093572;28;20391;-77
2022/02/02 13:30:55;;;;;;;11.95;7.43;;;;;;;;;;5088980;28;20558;-79
2022/02/02 13:36:39;;;;;;;15.85;9.95;;;;;;;;;;5074392;28;20122;-79
2022/02/02 13:45:09;;;;;;;14.57;7.25;;;;;;;;;;5074047;28;20036;-84
2022/02/02 13:47:55;;;;;;;12.65;8.35;;;;;;;;;;5082628;28;20047;-80
2022/02/02 14:04:34;;;;;;;25.00;15.60;;;;;;;;;;5073432;28;20119;-80
2022/02/02 14:31:17;;;;;;;20.25;13.57;;;;;;;;;;5111631;28;20031;-78
2022/02/02 14:33:45;;;;;;;15.27;10.45;;;;;;;;;;5091318;28;20027;-79
2022/02/02 14:36:15;;;;;;;19.35;11.90;;;;;;;;;;5097496;28;20035;-80
2022/02/02 14:38:47;;;;;;;17.58;11.23;;;;;;;;;;5112642;28;20027;-79
2022/02/02 14:46:15;;;;;;;15.75;9.07;;;;;;;;;;5112386;28;20127;-77
2022/02/02 14:54:28;;;;;;;10.50;8.40;;;;;;;;;;5091821;28;20041;-77
2022/02/02 15:25:09;;;;;;;21.50;13.30;;;;;;;;;;5091412;28;20172;-79
2022/02/02 15:32:19;;;;;;;;;;;;;;;;;;5092996;28;20039;-78
2022/02/02 15:34:49;;;;;;;12.30;9.02;;;;;;;;;;5089470;28;19908;-78
2022/02/02 15:37:32;;;;;;;15.93;10.00;;;;;;;;;;5092219;28;20482;-79
2022/02/02 15:40:04;;;;;;;18.05;11.77;;;;;;;;;;5092065;28;20070;-76
2022/02/02 15:58:33;;;;;;;19.00;11.48;;;;;;;;;;5075552;28;20051;-78
2022/02/02 16:03:57;;;;;;;;;;;;;;;;;;5053982;28;20064;-80
2022/02/02 16:06:25;;;;;;;15.77;9.85;;;;;;;;;;5092067;28;19904;-77
2022/02/02 16:09:02;;;;;;;15.63;9.85;;;;;;;;;;5095907;28;20213;-77
2022/02/02 16:11:30;;;;;;;15.73;9.90;;;;;;;;;;5095710;28;20035;-80
2022/02/02 16:14:01;;;;;;;16.05;10.82;;;;;;;;;;5077245;28;20024;-80
2022/02/02 16:37:36;;;;;;;13.45;9.80;;;;;;;;;;5095074;28;20040;-78
2022/02/02 16:40:05;;;;;;;15.25;9.25;;;;;;;;;;5094371;28;20052;-80
2022/02/02 16:45:16;;;;;;;10.40;7.45;;;;;;;;;;5098258;28;20062;-79
2022/02/02 16:47:43;;;;;;;15.93;9.07;;;;;;;;;;5115646;28;20067;-75
2022/02/02 16:50:14;;;;;;;14.40;8.02;;;;;;;;;;5105609;28;20048;-77
2022/02/02 16:52:40;;;;;;;12.98;8.60;;;;;;;;;;5084327;28;20154;-78
2022/02/02 16:55:14;;;;;;;14.57;8.82;;;;;;;;;;5087725;28;20024;-78
2022/02/02 17:30:27;;;;;;;11.48;7.32;;;;;;;;;;5091759;28;20098;-78
2022/02/02 17:37:55;;;;;;;13.73;8.85;;;;;;;;;;5087190;28;20062;-78
2022/02/02 18:20:25;;;;;;;11.23;7.80;;;;;;;;;;5094562;28;19958;-77
2022/02/02 18:23:02;;;;;;;14.43;8.25;;;;;;;;;;5108179;28;20028;-79
2022/02/02 18:28:27;;;;;;;13.90;9.07;;;;;;;;;;5083368;28;20426;-80
2022/02/02 18:31:19;;;;;;;13.00;7.75;;;;;;;;;;5094184;28;20035;-80
2022/02/02 18:34:01;;;;;;;13.13;8.48;;;;;;;;;;5094178;28;20085;-78
2022/02/02 18:40:13;;;;;;;11.20;7.03;;;;;;;;;;5094067;28;20067;-78
2022/02/02 18:47:21;;;;;;;;;;;;;;;;;;5094870;28;20035;-80
2022/02/02 19:03:04;;;;;;;12.50;7.15;;;;;;;;;;5093762;28;20093;-79
2022/02/02 20:05:47;;;;;;;15.13;8.93;;;;;;;;;;5091681;28;20031;-77
2022/02/02 20:11:06;;;;;;;8.55;6.40;;;;;;;;;;5092789;28;20166;-78
2022/02/02 20:13:38;;;;;;;10.18;7.65;;;;;;;;;;5074195;28;20043;-79
2022/02/02 20:16:05;;;;;;;13.00;9.40;;;;;;;;;;5092909;28;20028;-75
2022/02/02 20:18:36;;;;;;;14.23;9.90;;;;;;;;;;5092934;28;20486;-78
2022/02/02 20:21:06;;;;;;;13.25;8.70;;;;;;;;;;5091650;28;20043;-79
2022/02/02 20:23:33;;;;;;;18.45;10.27;;;;;;;;;;5091690;28;20023;-79
2022/02/02 20:25:59;;;;;;;14.57;8.70;;;;;;;;;;5091719;28;20020;-80
2022/02/02 20:28:26;;;;;;;13.32;9.02;;;;;;;;;;5091538;28;20016;-78
2022/02/02 20:30:52;;;;;;;14.15;8.63;;;;;;;;;;5091630;28;20032;-78
2022/02/02 20:33:18;;;;;;;15.07;9.05;;;;;;;;;;5092108;28;20048;-77
2022/02/02 20:35:45;;;;;;;12.00;7.68;;;;;;;;;;5077106;28;20028;-81
2022/02/02 20:38:12;;;;;;;11.40;8.52;;;;;;;;;;5094787;28;20028;-78
2022/02/02 20:40:38;;;;;;;13.68;8.68;;;;;;;;;;5094912;28;20036;-77
2022/02/02 20:43:12;;;;;;;11.27;6.75;;;;;;;;;;5095206;28;20024;-78
2022/02/02 21:10:21;;;;;;;9.77;7.50;;;;;;;;;;5094238;28;20028;-77
2022/02/02 21:15:44;;;;;;;11.18;7.13;;;;;;;;;;5083094;28;20035;-77
2022/02/02 21:18:15;;;;;;;12.95;7.75;;;;;;;;;;5079825;28;20024;-78
2022/02/02 21:21:01;;;;;;;10.40;7.15;;;;;;;;;;5081750;28;20024;-79
2022/02/02 21:23:38;;;;;;;8.73;6.28;;;;;;;;;;5083518;28;20279;-78
2022/02/02 21:28:31;;;;;;;13.10;8.63;;;;;;;;;;5081877;28;20111;-79
2022/02/02 21:30:58;;;;;;;12.88;7.88;;;;;;;;;;5082436;28;20039;-78
2022/02/02 21:33:24;;;;;;;11.77;8.07;;;;;;;;;;5083136;28;20039;-79
2022/02/02 21:35:51;;;;;;;14.95;8.40;;;;;;;;;;5081675;28;20024;-77
2022/02/02 21:40:56;;;;;;;11.57;8.10;;;;;;;;;;5078844;28;20036;-80
2022/02/02 21:43:23;;;;;;;12.95;7.57;;;;;;;;;;5090736;28;20036;-77
2022/02/02 21:45:49;;;;;;;13.10;8.48;;;;;;;;;;5093206;28;20039;-80
2022/02/02 21:48:16;;;;;;;12.98;8.82;;;;;;;;;;5093682;28;20028;-79
2022/02/02 21:50:54;;;;;;;12.27;8.77;;;;;;;;;;5106980;28;20051;-78
2022/02/02 21:53:21;;;;;;;13.88;9.38;;;;;;;;;;5114061;28;20016;-80
2022/02/02 21:55:47;;;;;;;13.20;8.55;;;;;;;;;;5114000;28;20172;-79
2022/02/02 21:58:14;;;;;;;14.35;10.20;;;;;;;;;;5113800;28;20122;-78
2022/02/02 22:00:42;;;;;;;16.23;11.85;;;;;;;;;;5113777;28;20494;-77
2022/02/02 22:03:09;;;;;;;12.00;8.98;;;;;;;;;;5113712;28;20016;-77
2022/02/02 22:05:36;;;;;;;11.85;7.95;;;;;;;;;;5114078;28;20024;-78
2022/02/02 22:08:07;;;;;;;12.07;8.25;;;;;;;;;;5114151;28;20058;-80
2022/02/02 22:10:33;;;;;;;12.88;7.43;;;;;;;;;;5113917;28;20190;-78
2022/02/02 22:12:59;;;;;;;15.63;10.55;;;;;;;;;;5113603;28;20474;-78
2022/02/02 22:15:38;;;;;;;16.02;9.82;;;;;;;;;;5113607;28;20020;-80
2022/02/02 22:18:04;;;;;;;13.88;8.30;;;;;;;;;;5094930;28;20059;-78
2022/02/02 22:20:30;;;;;;;12.20;7.63;;;;;;;;;;5113389;28;20111;-79
2022/02/02 22:22:57;;;;;;;13.85;8.07;;;;;;;;;;5113191;28;20028;-79
2022/02/02 22:25:24;;;;;;;12.07;7.85;;;;;;;;;;5113482;28;20015;-80
2022/02/02 22:27:50;;;;;;;11.75;7.63;;;;;;;;;;5113155;28;20030;-79
2022/02/02 22:30:16;;;;;;;12.05;6.90;;;;;;;;;;5113548;28;20152;-78
2022/02/02 22:32:43;;;;;;;11.50;8.25;;;;;;;;;;5113430;28;20027;-81
2022/02/02 22:35:09;;;;;;;11.43;6.50;;;;;;;;;;5113115;28;20019;-78
2022/02/02 22:37:36;;;;;;;10.63;6.95;;;;;;;;;;5113238;28;20031;-77
2022/02/02 22:40:03;;;;;;;10.55;7.90;;;;;;;;;;5112889;28;20397;-80
2022/02/02 22:42:30;;;;;;;11.18;7.50;;;;;;;;;;5113255;28;20032;-79
2022/02/02 22:45:00;;;;;;;12.00;8.63;;;;;;;;;;5112896;28;20022;-79
2022/02/02 22:47:31;;;;;;;12.30;8.07;;;;;;;;;;5113086;28;20367;-79
2022/02/02 22:49:58;;;;;;;11.10;6.05;;;;;;;;;;5112592;28;20054;-78
2022/02/02 22:52:25;;;;;;;10.90;7.63;;;;;;;;;;5113009;28;20390;-78
2022/02/02 22:54:51;;;;;;;12.57;7.38;;;;;;;;;;5112975;28;20024;-79
2022/02/02 22:57:17;;;;;;;10.65;7.47;;;;;;;;;;5111939;28;20036;-78
2022/02/02 22:59:47;;;;;;;13.00;8.10;;;;;;;;;;5112707;28;20027;-80
2022/02/02 23:02:35;;;;;;;11.85;7.32;;;;;;;;;;5112650;28;20375;-76
2022/02/02 23:04:59;;;;;;;13.75;6.68;;;;;;;;;;5112052;28;20035;-75
2022/02/02 23:07:25;;;;;;;12.48;7.13;;;;;;;;;;5112689;28;20026;-76
2022/02/02 23:09:52;;;;;;;11.75;7.30;;;;;;;;;;5112494;28;20149;-77
2022/02/02 23:12:21;;;;;;;11.77;8.38;;;;;;;;;;5112692;28;20032;-77
2022/02/02 23:14:47;;;;;;;13.85;9.13;;;;;;;;;;5112283;28;20019;-78
2022/02/02 23:17:14;;;;;;;10.55;7.10;;;;;;;;;;5094462;28;20036;-78
2022/02/02 23:19:44;;;;;;;11.55;8.77;;;;;;;;;;5112417;28;20052;-78
2022/02/02 23:22:11;;;;;;;13.48;9.82;;;;;;;;;;5112575;28;20020;-79
2022/02/02 23:24:39;;;;;;;14.52;10.85;;;;;;;;;;5109045;28;20020;-78
2022/02/02 23:27:07;;;;;;;13.18;9.23;;;;;;;;;;5094207;28;20039;-76
2022/02/02 23:29:40;;;;;;;16.77;9.05;;;;;;;;;;5112328;28;20023;-78
2022/02/02 23:32:06;;;;;;;16.60;9.80;;;;;;;;;;5112496;28;20439;-79
2022/02/02 23:34:33;;;;;;;14.93;10.32;;;;;;;;;;5112185;28;20024;-80
2022/02/02 23:36:59;;;;;;;16.13;9.65;;;;;;;;;;5112492;28;20031;-78
2022/02/02 23:39:27;;;;;;;13.98;8.90;;;;;;;;;;5112054;28;20061;-78
2022/02/02 23:44:37;;;;;;;13.82;10.07;;;;;;;;;;5112682;28;20429;-80
2022/02/02 23:47:05;;;;;;;16.65;10.38;;;;;;;;;;5112478;28;20374;-79
2022/02/02 23:49:37;;;;;;;13.63;9.23;;;;;;;;;;5112152;28;20078;-77
2022/02/02 23:52:04;;;;;;;12.40;8.00;;;;;;;;;;5094051;28;20381;-79
2022/02/02 23:54:34;;;;;;;11.40;8.38;;;;;;;;;;5112315;28;20063;-78
2022/02/02 23:57:07;;;;;;;14.20;9.30;;;;;;;;;;5094065;28;20024;-81
